Time;durP1;ratioP1;P1;durP2;ratioP2;P2;SDS_P1;SDS_P2;PMS_P1;PMS_P2;Temp;Humidity;BMP_temperature;BMP_pressure;BME280_temperature;BME280_humidity;BME280_pressure;Samples;Min_cycle;Max_cycle;Signal;HPM_P1;HPM_P2
2021/01/06 00:01:32;;;;;;;5.18;2.95;;;3.50;99.90;;;;;;5041521;28;20044;-45
2021/01/06 00:03:58;;;;;;;8.05;3.70;;;3.60;99.90;;;;;;5055922;28;20028;-45
2021/01/06 00:06:29;;;;;;;5.50;3.67;;;3.50;99.90;;;;;;5046246;28;20031;-41
2021/01/06 00:08:56;;;;;;;4.45;3.30;;;3.50;99.90;;;;;;5048492;28;20020;-42
2021/01/06 00:11:29;;;;;;;5.35;2.83;;;3.50;99.90;;;;;;5042923;28;20044;-43
2021/01/06 00:13:55;;;;;;;6.53;3.03;;;3.50;99.90;;;;;;5043562;28;20040;-43
2021/01/06 00:16:20;;;;;;;6.22;3.28;;;3.50;99.90;;;;;;5040225;28;20083;-45
2021/01/06 00:18:46;;;;;;;8.27;3.10;;;3.50;99.90;;;;;;5046593;28;20023;-48
2021/01/06 00:21:12;;;;;;;6.75;3.17;;;3.50;99.90;;;;;;5042531;28;20488;-44
2021/01/06 00:23:38;;;;;;;7.75;3.75;;;3.60;99.90;;;;;;5052782;28;20025;-42
2021/01/06 00:26:03;;;;;;;5.18;3.45;;;3.50;99.90;;;;;;5041799;28;20029;-44
2021/01/06 00:28:29;;;;;;;5.80;3.22;;;3.50;99.90;;;;;;5045889;28;20025;-43
2021/01/06 00:30:57;;;;;;;10.18;3.30;;;3.50;99.90;;;;;;5042281;28;20037;-42
2021/01/06 00:33:32;;;;;;;4.43;2.60;;;3.50;99.90;;;;;;5040544;28;20495;-43
2021/01/06 00:36:00;;;;;;;5.72;3.17;;;3.40;99.90;;;;;;5035738;28;20103;-44
2021/01/06 00:38:27;;;;;;;5.20;2.65;;;3.40;99.90;;;;;;5044824;28;20474;-45
2021/01/06 00:40:53;;;;;;;5.55;3.00;;;3.40;99.90;;;;;;5041609;28;20391;-42
2021/01/06 00:43:19;;;;;;;4.13;2.70;;;3.40;99.90;;;;;;5040377;28;20032;-46
2021/01/06 00:45:45;;;;;;;8.32;2.92;;;3.40;99.90;;;;;;5036722;28;20025;-43
2021/01/06 00:48:12;;;;;;;7.45;3.55;;;3.40;99.90;;;;;;5040268;28;20496;-43
2021/01/06 00:50:37;;;;;;;5.93;2.40;;;3.40;99.90;;;;;;5048878;28;20049;-45
2021/01/06 00:53:06;;;;;;;4.20;2.30;;;3.40;99.90;;;;;;5034676;28;20041;-45
2021/01/06 00:55:32;;;;;;;4.65;2.17;;;3.40;99.90;;;;;;5041110;28;20024;-43
2021/01/06 00:57:58;;;;;;;5.13;2.13;;;3.30;99.90;;;;;;5037696;28;20042;-44
2021/01/06 01:00:27;;;;;;;4.55;1.95;;;3.30;99.90;;;;;;5040670;28;20095;-44
2021/01/06 01:02:52;;;;;;;3.92;1.92;;;3.40;99.90;;;;;;5037184;28;20159;-45
2021/01/06 01:05:26;;;;;;;3.33;1.55;;;3.30;99.90;;;;;;5041054;28;20104;-46
2021/01/06 01:07:52;;;;;;;3.60;1.80;;;3.30;99.90;;;;;;5036580;28;20041;-42
2021/01/06 01:10:32;;;;;;;4.38;2.67;;;3.30;99.90;;;;;;5040738;28;20056;-43
2021/01/06 01:13:00;;;;;;;3.33;1.73;;;3.30;99.90;;;;;;5036232;28;20075;-45
2021/01/06 01:15:29;;;;;;;3.33;1.88;;;3.30;99.90;;;;;;5031961;28;20541;-42
2021/01/06 01:17:55;;;;;;;2.88;1.83;;;3.30;99.90;;;;;;5034152;28;20054;-42
2021/01/06 01:20:21;;;;;;;3.45;1.92;;;3.30;99.90;;;;;;5038286;28;20030;-43
2021/01/06 01:22:47;;;;;;;2.75;1.40;;;3.30;99.90;;;;;;5036325;28;20125;-43
2021/01/06 01:25:15;;;;;;;1.63;1.27;;;3.30;99.90;;;;;;5035169;28;20021;-43
2021/01/06 01:27:41;;;;;;;1.42;1.02;;;3.30;99.90;;;;;;5032175;28;20156;-44
2021/01/06 01:30:11;;;;;;;3.60;1.50;;;3.30;99.90;;;;;;5046129;28;20513;-44
2021/01/06 01:32:41;;;;;;;1.67;1.20;;;3.30;99.90;;;;;;5041887;28;20052;-42
2021/01/06 01:35:06;;;;;;;1.40;1.30;;;3.30;99.90;;;;;;5052017;28;20024;-45
2021/01/06 01:37:32;;;;;;;1.70;1.10;;;3.30;99.90;;;;;;5043308;28;20029;-45
2021/01/06 01:39:57;;;;;;;1.50;1.05;;;3.30;99.90;;;;;;5047742;28;20509;-45
2021/01/06 01:42:23;;;;;;;1.88;1.58;;;3.30;99.90;;;;;;5049418;28;20017;-43
2021/01/06 01:44:57;;;;;;;1.17;1.05;;;3.30;99.90;;;;;;5049262;28;20039;-45
2021/01/06 01:47:29;;;;;;;2.15;1.20;;;3.30;99.90;;;;;;5037741;28;20032;-43
2021/01/06 01:49:54;;;;;;;1.33;1.00;;;3.30;99.90;;;;;;5031632;28;20048;-45
2021/01/06 01:52:22;;;;;;;2.00;1.10;;;3.30;99.90;;;;;;5032902;28;20087;-43
2021/01/06 01:54:48;;;;;;;1.25;1.00;;;3.30;99.90;;;;;;5029319;28;20045;-45
2021/01/06 01:57:20;;;;;;;1.88;1.20;;;3.30;99.90;;;;;;5038287;28;20045;-43
2021/01/06 01:59:57;;;;;;;1.73;0.95;;;3.30;99.90;;;;;;5044888;28;20068;-47
2021/01/06 02:02:51;;;;;;;2.88;1.40;;;3.30;99.90;;;;;;5040764;28;20024;-45
2021/01/06 02:05:32;;;;;;;1.98;1.00;;;3.30;99.90;;;;;;5035590;28;20029;-46
2021/01/06 02:08:31;;;;;;;2.25;1.33;;;3.30;99.90;;;;;;5034987;28;20135;-45
2021/01/06 02:11:04;;;;;;;1.92;1.15;;;3.30;99.90;;;;;;5029778;28;20072;-42
2021/01/06 02:13:40;;;;;;;1.38;1.00;;;3.20;99.90;;;;;;5034455;28;20373;-43
2021/01/06 02:16:32;;;;;;;2.03;1.15;;;3.30;99.90;;;;;;5039528;28;20057;-43
2021/01/06 02:18:58;;;;;;;2.15;1.02;;;3.20;99.90;;;;;;5034540;28;20510;-42
2021/01/06 02:21:26;;;;;;;0.90;0.70;;;3.20;99.90;;;;;;5034383;28;20033;-43
2021/01/06 02:23:55;;;;;;;1.58;1.15;;;3.20;99.90;;;;;;5034080;28;20044;-42
2021/01/06 02:26:22;;;;;;;1.30;1.00;;;3.20;99.90;;;;;;5035383;28;20025;-43
2021/01/06 02:28:48;;;;;;;1.15;0.82;;;3.20;99.90;;;;;;5040117;28;20080;-43
2021/01/06 02:31:15;;;;;;;1.20;0.82;;;3.20;99.90;;;;;;5032493;28;20017;-46
2021/01/06 02:33:41;;;;;;;0.85;0.82;;;3.10;99.90;;;;;;5037395;28;20067;-43
2021/01/06 02:36:06;;;;;;;0.90;0.70;;;3.20;99.90;;;;;;5031948;28;20033;-44
2021/01/06 02:38:33;;;;;;;1.10;0.80;;;3.10;99.90;;;;;;5033778;28;20033;-44
2021/01/06 02:40:59;;;;;;;1.25;0.63;;;3.10;99.90;;;;;;5033598;28;20052;-44
2021/01/06 02:43:25;;;;;;;0.88;0.70;;;3.10;99.90;;;;;;5034261;28;20509;-44
2021/01/06 02:45:52;;;;;;;1.20;0.40;;;3.10;99.90;;;;;;5035118;28;20029;-42
2021/01/06 02:48:18;;;;;;;0.65;0.50;;;3.10;99.90;;;;;;5037806;28;20032;-43
2021/01/06 02:50:46;;;;;;;1.05;0.80;;;3.00;99.90;;;;;;5032631;28;20056;-42
2021/01/06 02:53:24;;;;;;;1.33;0.73;;;3.00;99.90;;;;;;5037995;28;20109;-42
2021/01/06 02:55:52;;;;;;;1.80;0.65;;;3.00;99.90;;;;;;5031998;28;20036;-42
2021/01/06 02:58:21;;;;;;;0.95;0.60;;;3.00;99.90;;;;;;5037205;28;20025;-43
2021/01/06 03:00:51;;;;;;;1.02;0.70;;;2.90;99.90;;;;;;5033566;28;20480;-45
2021/01/06 03:03:18;;;;;;;0.35;0.30;;;3.00;99.90;;;;;;5042499;28;20168;-42
2021/01/06 03:06:14;;;;;;;2.50;0.52;;;2.90;99.90;;;;;;5047401;28;20026;-42
2021/01/06 03:08:39;;;;;;;1.02;0.70;;;2.90;99.90;;;;;;5028928;28;20037;-42
2021/01/06 03:11:07;;;;;;;0.57;0.50;;;2.90;99.90;;;;;;5041606;28;20032;-43
2021/01/06 03:13:33;;;;;;;0.57;0.50;;;2.90;99.90;;;;;;5042518;28;20030;-45
2021/01/06 03:15:59;;;;;;;0.77;0.60;;;2.90;99.90;;;;;;5044039;28;20021;-43
2021/01/06 03:18:25;;;;;;;0.70;0.52;;;3.00;99.90;;;;;;5041142;28;20033;-42
2021/01/06 03:20:54;;;;;;;0.50;0.50;;;3.00;99.90;;;;;;5038496;28;20017;-42
2021/01/06 03:23:25;;;;;;;0.68;0.60;;;3.00;99.90;;;;;;5045929;28;20477;-44
2021/01/06 03:25:52;;;;;;;0.40;0.40;;;2.90;99.90;;;;;;5037807;28;20128;-44
2021/01/06 03:28:20;;;;;;;0.60;0.50;;;2.90;99.90;;;;;;5052615;28;20476;-45
2021/01/06 03:30:46;;;;;;;0.50;0.40;;;2.90;99.90;;;;;;5045044;28;20036;-42
2021/01/06 03:33:23;;;;;;;0.52;0.32;;;2.90;99.90;;;;;;5045214;28;20382;-44
2021/01/06 03:35:57;;;;;;;1.25;0.40;;;2.90;99.90;;;;;;5040572;28;20031;-42
2021/01/06 03:38:28;;;;;;;1.10;0.50;;;2.90;99.90;;;;;;5041170;28;20034;-42
2021/01/06 03:40:55;;;;;;;0.52;0.40;;;2.80;99.90;;;;;;5045503;28;20041;-42
2021/01/06 03:43:24;;;;;;;0.25;0.25;;;2.80;99.90;;;;;;5037133;28;20096;-44
2021/01/06 03:45:54;;;;;;;0.85;0.60;;;2.80;99.90;;;;;;5044061;28;20092;-42
2021/01/06 03:48:28;;;;;;;2.35;0.77;;;2.80;99.90;;;;;;5041873;28;20028;-45
2021/01/06 03:51:04;;;;;;;1.38;0.75;;;2.70;99.90;;;;;;5044130;28;20391;-42
2021/01/06 03:53:41;;;;;;;0.93;0.60;;;2.70;99.90;;;;;;5037801;28;20029;-42
2021/01/06 03:56:18;;;;;;;1.20;0.70;;;2.70;99.90;;;;;;5039468;28;20473;-44
2021/01/06 03:59:18;;;;;;;1.85;0.40;;;2.70;99.90;;;;;;5043759;28;20382;-42
2021/01/06 04:02:13;;;;;;;0.85;0.50;;;2.70;99.90;;;;;;5051667;28;20098;-42
2021/01/06 04:04:48;;;;;;;1.40;0.50;;;2.60;99.90;;;;;;5037431;28;20056;-41
2021/01/06 04:07:35;;;;;;;0.73;0.40;;;2.60;99.90;;;;;;5040146;28;20433;-45
2021/01/06 04:10:07;;;;;;;0.98;0.40;;;2.60;99.90;;;;;;5038298;28;20375;-44
2021/01/06 04:12:32;;;;;;;0.80;0.40;;;2.70;99.90;;;;;;5039052;28;20405;-42
2021/01/06 04:14:59;;;;;;;0.38;0.30;;;2.60;99.90;;;;;;5038823;28;20124;-43
2021/01/06 04:17:30;;;;;;;0.10;0.10;;;2.60;99.90;;;;;;5034769;28;20026;-42
2021/01/06 04:20:00;;;;;;;0.17;0.17;;;2.60;99.90;;;;;;5037002;28;20021;-42
2021/01/06 04:22:46;;;;;;;0.45;0.45;;;2.60;99.90;;;;;;5036095;28;20319;-44
2021/01/06 04:25:23;;;;;;;0.25;0.25;;;2.60;99.90;;;;;;5036931;28;20022;-50
2021/01/06 04:27:52;;;;;;;0.30;0.30;;;2.70;99.90;;;;;;5034635;28;20385;-49
2021/01/06 04:30:34;;;;;;;0.60;0.30;;;2.60;99.90;;;;;;5040116;28;20033;-44
2021/01/06 04:33:01;;;;;;;0.30;0.30;;;2.70;99.90;;;;;;5046088;28;20052;-42
2021/01/06 04:35:29;;;;;;;1.45;0.40;;;2.70;99.90;;;;;;5038329;28;20030;-41
2021/01/06 04:37:56;;;;;;;0.50;0.32;;;2.70;99.90;;;;;;5039547;28;20490;-45
2021/01/06 04:40:24;;;;;;;0.63;0.52;;;2.70;99.90;;;;;;5040281;28;20100;-42
2021/01/06 04:42:50;;;;;;;0.35;0.32;;;2.70;99.90;;;;;;5039088;28;20044;-44
2021/01/06 04:45:22;;;;;;;0.98;0.30;;;2.70;99.90;;;;;;5037520;28;20021;-44
2021/01/06 04:48:11;;;;;;;0.30;0.30;;;2.70;99.90;;;;;;5033453;28;20423;-44
2021/01/06 04:50:51;;;;;;;0.52;0.30;;;2.70;99.90;;;;;;5040207;28;20402;-45
2021/01/06 04:53:57;;;;;;;1.00;0.38;;;2.60;99.90;;;;;;5039166;28;20033;-41
2021/01/06 04:56:52;;;;;;;0.30;0.30;;;2.70;99.90;;;;;;5039096;28;20036;-42
2021/01/06 05:00:01;;;;;;;0.40;0.30;;;2.60;99.90;;;;;;5042993;28;20035;-42
2021/01/06 05:02:55;;;;;;;0.55;0.32;;;2.60;99.90;;;;;;5032878;28;20104;-44
2021/01/06 05:05:48;;;;;;;0.43;0.40;;;2.70;99.90;;;;;;5023256;28;20628;-42
2021/01/06 05:08:37;;;;;;;0.30;0.30;;;2.60;99.90;;;;;;5037789;28;20051;-42
2021/01/06 05:11:27;;;;;;;0.40;0.38;;;2.60;99.90;;;;;;5036504;28;20033;-44
2021/01/06 05:14:17;;;;;;;0.10;0.10;;;2.60;99.90;;;;;;5036253;28;20112;-43
2021/01/06 05:16:48;;;;;;;0.55;0.28;;;2.60;99.90;;;;;;5039631;28;20029;-42
2021/01/06 05:19:23;;;;;;;0.20;0.20;;;2.60;99.90;;;;;;5035482;28;20063;-42
2021/01/06 05:21:51;;;;;;;0.43;0.30;;;2.60;99.90;;;;;;5040776;28;20374;-42
2021/01/06 05:24:36;;;;;;;0.30;0.30;;;2.60;99.90;;;;;;5036588;28;20063;-44
2021/01/06 05:27:23;;;;;;;0.30;0.30;;;2.60;99.90;;;;;;5032558;28;20112;-44
2021/01/06 05:29:54;;;;;;;0.20;0.20;;;2.60;99.90;;;;;;5035471;28;20621;-44
2021/01/06 05:32:29;;;;;;;0.30;0.28;;;2.60;99.90;;;;;;5032724;28;20078;-42
2021/01/06 05:35:05;;;;;;;0.65;0.40;;;2.60;99.90;;;;;;5032369;28;20593;-44
2021/01/06 05:37:32;;;;;;;0.40;0.30;;;2.70;99.90;;;;;;5038281;28;20033;-42
2021/01/06 05:40:04;;;;;;;0.40;0.30;;;2.60;99.90;;;;;;5034135;28;20032;-44
2021/01/06 05:42:34;;;;;;;1.13;0.40;;;2.60;99.90;;;;;;5031481;28;20030;-43
2021/01/06 05:45:03;;;;;;;1.23;0.50;;;2.70;99.90;;;;;;5037318;28;20021;-45
2021/01/06 05:47:36;;;;;;;2.70;0.60;;;2.70;99.90;;;;;;5033775;28;20036;-42
2021/01/06 05:50:11;;;;;;;0.93;0.50;;;2.60;99.90;;;;;;5036580;28;20431;-42
2021/01/06 05:52:37;;;;;;;0.70;0.57;;;2.60;99.90;;;;;;5034426;28;20056;-44
2021/01/06 05:55:06;;;;;;;2.13;0.68;;;2.50;99.90;;;;;;5033621;28;20048;-42
2021/01/06 05:58:00;;;;;;;1.15;0.80;;;2.50;99.90;;;;;;5038936;28;20067;-46
2021/01/06 06:01:03;;;;;;;1.77;1.02;;;2.50;99.90;;;;;;5036371;28;20371;-42
2021/01/06 06:03:46;;;;;;;1.40;0.95;;;2.50;99.90;;;;;;5040316;28;20017;-42
2021/01/06 06:06:41;;;;;;;2.17;0.98;;;2.50;99.90;;;;;;5038054;28;20489;-43
2021/01/06 06:09:38;;;;;;;1.30;1.20;;;2.50;99.90;;;;;;5031718;28;20044;-44
2021/01/06 06:12:25;;;;;;;1.67;1.25;;;2.50;99.90;;;;;;5029356;28;20386;-46
2021/01/06 06:15:05;;;;;;;1.98;1.15;;;2.50;99.90;;;;;;5037671;28;20034;-42
2021/01/06 06:17:51;;;;;;;1.42;0.98;;;2.50;99.90;;;;;;5032466;28;20034;-41
2021/01/06 06:20:33;;;;;;;0.43;0.43;;;2.50;99.90;;;;;;5032251;28;20025;-44
2021/01/06 06:23:28;;;;;;;0.50;0.50;;;2.50;99.90;;;;;;5032194;28;20033;-43
2021/01/06 06:26:24;;;;;;;0.55;0.50;;;2.50;99.90;;;;;;5036805;28;20528;-43
2021/01/06 06:29:26;;;;;;;0.68;0.47;;;2.40;99.90;;;;;;5031697;28;20120;-41
2021/01/06 06:31:55;;;;;;;0.47;0.40;;;2.50;99.90;;;;;;5044137;28;20135;-43
2021/01/06 06:34:31;;;;;;;0.15;0.10;;;2.40;99.90;;;;;;5036512;28;20033;-42
2021/01/06 06:37:05;;;;;;;0.10;0.10;;;2.40;99.90;;;;;;5034751;28;20513;-41
2021/01/06 06:39:53;;;;;;;0.32;0.25;;;2.40;99.90;;;;;;5035217;28;20029;-41
2021/01/06 06:42:22;;;;;;;0.30;0.30;;;2.40;99.90;;;;;;5028550;28;20492;-41
2021/01/06 06:44:51;;;;;;;0.30;0.20;;;2.40;99.90;;;;;;5035474;28;20085;-43
2021/01/06 06:47:20;;;;;;;0.10;0.10;;;2.40;99.90;;;;;;5035712;28;20037;-45
2021/01/06 06:50:23;;;;;;;0.73;0.60;;;2.40;99.90;;;;;;5037813;28;20454;-41
2021/01/06 06:53:12;;;;;;;0.60;0.38;;;2.40;99.90;;;;;;5030665;28;20071;-41
2021/01/06 06:55:48;;;;;;;1.20;0.70;;;2.40;99.90;;;;;;5037448;28;20071;-43
2021/01/06 06:58:38;;;;;;;1.08;0.73;;;2.30;99.90;;;;;;5035271;28;20113;-45
2021/01/06 07:01:08;;;;;;;0.93;0.63;;;2.30;99.90;;;;;;5035756;28;20136;-43
2021/01/06 07:03:37;;;;;;;0.52;0.50;;;2.30;99.90;;;;;;5031971;28;20021;-42
2021/01/06 07:06:07;;;;;;;0.63;0.63;;;2.30;99.90;;;;;;5039176;28;20037;-44
2021/01/06 07:08:44;;;;;;;1.30;0.70;;;2.30;99.90;;;;;;5038202;28;20025;-42
2021/01/06 07:11:31;;;;;;;1.20;0.90;;;2.20;99.90;;;;;;5040323;28;20033;-44
2021/01/06 07:14:04;;;;;;;1.38;1.10;;;2.20;99.90;;;;;;5032680;28;20082;-46
2021/01/06 07:16:34;;;;;;;1.20;1.10;;;2.20;99.90;;;;;;5036532;28;20036;-45
2021/01/06 07:19:52;;;;;;;2.83;1.42;;;2.20;99.90;;;;;;5037777;28;20030;-42
2021/01/06 07:22:30;;;;;;;1.95;1.67;;;2.20;99.90;;;;;;5033034;28;20034;-48
2021/01/06 07:25:05;;;;;;;1.60;1.38;;;2.20;99.90;;;;;;5040189;28;20029;-44
2021/01/06 07:27:32;;;;;;;1.58;1.48;;;2.20;99.90;;;;;;5040916;28;20041;-43
2021/01/06 07:29:58;;;;;;;1.48;1.38;;;2.20;99.90;;;;;;5039742;28;20037;-44
2021/01/06 07:32:36;;;;;;;1.77;1.35;;;2.30;99.90;;;;;;5036992;28;20040;-41
2021/01/06 07:35:10;;;;;;;2.20;1.20;;;2.40;99.90;;;;;;5036822;28;20075;-41
2021/01/06 07:37:42;;;;;;;5.25;1.20;;;2.40;99.90;;;;;;5037579;28;20795;-42
2021/01/06 07:40:36;;;;;;;1.17;1.08;;;2.40;99.90;;;;;;5041681;28;20033;-43
2021/01/06 07:43:08;;;;;;;1.40;1.10;;;2.40;99.90;;;;;;5030449;28;20108;-43
2021/01/06 07:45:59;;;;;;;1.30;1.20;;;2.40;99.90;;;;;;5030202;28;20040;-43
2021/01/06 07:48:41;;;;;;;1.10;0.95;;;2.50;99.90;;;;;;5030975;28;20033;-44
2021/01/06 07:51:30;;;;;;;1.73;1.20;;;2.50;99.90;;;;;;5037814;28;20405;-44
2021/01/06 07:54:08;;;;;;;1.10;0.90;;;2.50;99.90;;;;;;5039906;28;20116;-45
2021/01/06 07:56:40;;;;;;;1.42;1.05;;;2.50;99.90;;;;;;5040065;28;20046;-44
2021/01/06 07:59:17;;;;;;;1.75;1.10;;;2.50;99.90;;;;;;5036249;28;20026;-43
2021/01/06 08:01:49;;;;;;;1.10;1.00;;;2.50;99.90;;;;;;5038684;28;20028;-43
2021/01/06 08:04:30;;;;;;;1.20;1.10;;;2.50;99.90;;;;;;5038142;28;20021;-44
2021/01/06 08:07:00;;;;;;;0.90;0.90;;;2.60;99.90;;;;;;5034443;28;20076;-42
2021/01/06 08:09:35;;;;;;;0.93;0.75;;;2.60;99.90;;;;;;5037431;28;20031;-44
2021/01/06 08:12:11;;;;;;;0.77;0.77;;;2.60;99.90;;;;;;5033105;28;20029;-42
2021/01/06 08:14:37;;;;;;;1.02;0.90;;;2.70;99.90;;;;;;5037111;28;20565;-42
2021/01/06 08:17:26;;;;;;;0.73;0.73;;;2.70;99.90;;;;;;5034195;28;20045;-44
2021/01/06 08:20:04;;;;;;;1.17;0.90;;;2.70;99.90;;;;;;5037282;28;20029;-43
2021/01/06 08:22:40;;;;;;;1.00;0.90;;;2.70;99.90;;;;;;5039381;28;20163;-43
2021/01/06 08:25:17;;;;;;;0.98;0.80;;;2.70;99.90;;;;;;5040577;28;20018;-42
2021/01/06 08:27:45;;;;;;;1.45;1.13;;;2.80;99.90;;;;;;5035774;28;20045;-41
2021/01/06 08:30:20;;;;;;;0.85;0.70;;;2.80;99.90;;;;;;5039863;28;20040;-41
2021/01/06 08:32:47;;;;;;;1.08;0.90;;;2.90;99.90;;;;;;5038594;28;20025;-43
2021/01/06 08:35:19;;;;;;;1.33;0.88;;;2.90;99.90;;;;;;5033889;28;20026;-44
2021/01/06 08:37:50;;;;;;;0.80;0.80;;;3.00;99.90;;;;;;5035261;28;20033;-44
2021/01/06 08:40:37;;;;;;;2.10;0.85;;;3.10;99.90;;;;;;5036043;28;20052;-42
2021/01/06 08:43:12;;;;;;;0.80;0.80;;;3.20;99.90;;;;;;5034649;28;20033;-45
2021/01/06 08:45:41;;;;;;;0.82;0.70;;;3.20;99.90;;;;;;5036869;28;20473;-44
2021/01/06 08:48:25;;;;;;;0.90;0.90;;;3.30;99.90;;;;;;5036604;28;20025;-42
2021/01/06 08:50:51;;;;;;;0.55;0.55;;;3.30;99.90;;;;;;5038145;28;20053;-42
2021/01/06 08:53:29;;;;;;;0.82;0.60;;;3.40;99.90;;;;;;5035095;28;20044;-46
2021/01/06 08:55:58;;;;;;;0.70;0.70;;;3.50;99.90;;;;;;5033474;28;20489;-42
2021/01/06 08:58:46;;;;;;;1.65;0.80;;;3.60;99.90;;;;;;5047115;28;20394;-41
2021/01/06 09:01:27;;;;;;;0.82;0.73;;;3.70;99.90;;;;;;5032831;28;20429;-44
2021/01/06 09:04:07;;;;;;;1.13;0.68;;;3.70;99.90;;;;;;5032872;28;20381;-41
2021/01/06 09:06:34;;;;;;;0.77;0.70;;;3.80;99.90;;;;;;5032981;28;20386;-41
2021/01/06 09:09:23;;;;;;;0.68;0.63;;;3.90;99.90;;;;;;5034001;28;20029;-42
2021/01/06 09:11:54;;;;;;;0.50;0.50;;;3.90;99.90;;;;;;5042222;28;20060;-42
2021/01/06 09:14:33;;;;;;;3.55;1.00;;;3.90;99.90;;;;;;5032937;28;20041;-42
2021/01/06 09:17:35;;;;;;;0.50;0.50;;;4.00;99.90;;;;;;5032334;28;20122;-46
2021/01/06 09:20:09;;;;;;;0.80;0.80;;;4.10;99.90;;;;;;5032538;28;20052;-42
2021/01/06 09:22:35;;;;;;;1.02;0.90;;;4.10;99.90;;;;;;5037883;28;20057;-45
2021/01/06 09:25:01;;;;;;;0.80;0.70;;;4.10;99.90;;;;;;5038453;28;20367;-42
2021/01/06 09:27:39;;;;;;;0.70;0.70;;;4.10;99.90;;;;;;5037992;28;20048;-45
2021/01/06 09:30:14;;;;;;;0.93;0.80;;;4.10;99.90;;;;;;5035090;28;20076;-43
2021/01/06 09:32:44;;;;;;;0.60;0.60;;;4.20;99.90;;;;;;5036746;28;20041;-42
2021/01/06 09:35:14;;;;;;;0.65;0.50;;;4.20;99.90;;;;;;5037718;28;20041;-43
2021/01/06 09:37:57;;;;;;;0.98;0.80;;;4.20;99.90;;;;;;5038980;28;20201;-46
2021/01/06 09:40:24;;;;;;;0.60;0.60;;;4.20;99.90;;;;;;5032253;28;20029;-42
2021/01/06 09:43:06;;;;;;;1.00;0.70;;;4.20;99.90;;;;;;5031451;28;20041;-43
2021/01/06 09:45:33;;;;;;;0.70;0.70;;;4.20;99.90;;;;;;5033461;28;20025;-43
2021/01/06 09:48:00;;;;;;;1.83;0.50;;;4.30;99.90;;;;;;5038358;28;20036;-44
2021/01/06 09:50:43;;;;;;;0.50;0.50;;;4.20;99.90;;;;;;5032779;28;20037;-45
2021/01/06 09:53:15;;;;;;;0.60;0.60;;;4.20;99.90;;;;;;5035587;28;20100;-42
2021/01/06 09:55:46;;;;;;;1.85;0.68;;;4.20;99.90;;;;;;5036967;28;20467;-42
2021/01/06 09:58:29;;;;;;;0.65;0.43;;;4.30;99.90;;;;;;5030143;28;20042;-43
2021/01/06 10:01:03;;;;;;;0.68;0.47;;;4.40;99.90;;;;;;5034352;28;20576;-42
2021/01/06 10:03:35;;;;;;;0.65;0.60;;;4.40;99.90;;;;;;5037012;28;20482;-44
2021/01/06 10:06:38;;;;;;;0.40;0.40;;;4.40;99.90;;;;;;5031819;28;20406;-43
2021/01/06 10:09:25;;;;;;;1.13;0.70;;;4.30;99.90;;;;;;5034091;28;20037;-41
2021/01/06 10:12:02;;;;;;;0.88;0.70;;;4.30;99.90;;;;;;5029988;28;20462;-45
2021/01/06 10:15:10;;;;;;;0.75;0.60;;;4.30;99.90;;;;;;5031500;28;20417;-46
2021/01/06 10:17:45;;;;;;;1.45;1.20;;;4.30;99.90;;;;;;5031098;28;20360;-42
2021/01/06 10:20:36;;;;;;;0.82;0.50;;;4.30;99.90;;;;;;5032870;28;20116;-44
2021/01/06 10:23:30;;;;;;;0.70;0.60;;;4.30;99.90;;;;;;5034983;28;20041;-45
2021/01/06 10:26:29;;;;;;;0.70;0.70;;;4.40;99.90;;;;;;5032047;28;20036;-44
2021/01/06 10:28:55;;;;;;;0.50;0.50;;;4.40;99.90;;;;;;5039479;28;20032;-42
2021/01/06 10:31:24;;;;;;;1.45;0.75;;;4.50;99.90;;;;;;5037836;28;20017;-42
2021/01/06 10:34:08;;;;;;;0.75;0.50;;;4.50;99.90;;;;;;5038047;28;20398;-41
2021/01/06 10:37:05;;;;;;;0.60;0.50;;;4.50;99.90;;;;;;5037628;28;20029;-42
2021/01/06 10:39:40;;;;;;;0.50;0.50;;;4.50;99.90;;;;;;5031417;28;20028;-42
2021/01/06 10:42:20;;;;;;;0.38;0.38;;;4.50;99.90;;;;;;5030747;28;20029;-41
2021/01/06 10:44:49;;;;;;;0.68;0.40;;;4.50;99.90;;;;;;5036497;28;20125;-45
2021/01/06 10:47:33;;;;;;;0.38;0.38;;;4.50;99.90;;;;;;5029838;28;20022;-41
2021/01/06 10:50:23;;;;;;;0.40;0.40;;;4.40;99.90;;;;;;5031681;28;20040;-42
2021/01/06 10:53:13;;;;;;;2.40;0.60;;;4.40;99.90;;;;;;5047853;28;20127;-41
2021/01/06 10:55:40;;;;;;;0.88;0.70;;;4.40;99.90;;;;;;5038370;28;20478;-44
2021/01/06 10:58:09;;;;;;;0.55;0.55;;;4.40;99.90;;;;;;5035397;28;20033;-45
2021/01/06 11:01:10;;;;;;;0.70;0.70;;;4.40;99.90;;;;;;5031132;28;20406;-43
2021/01/06 11:03:54;;;;;;;0.63;0.63;;;4.30;99.90;;;;;;5035655;28;20029;-44
2021/01/06 11:06:30;;;;;;;0.52;0.50;;;4.30;99.90;;;;;;5035280;28;20025;-42
2021/01/06 11:09:24;;;;;;;0.80;0.60;;;4.30;99.90;;;;;;5038136;28;20057;-43
2021/01/06 11:12:10;;;;;;;0.55;0.50;;;4.30;99.90;;;;;;5029861;28;20889;-41
2021/01/06 11:14:56;;;;;;;0.68;0.50;;;4.20;99.90;;;;;;5034909;28;20047;-43
2021/01/06 11:17:48;;;;;;;;;;;4.20;99.90;;;;;;5037747;28;20063;-42
2021/01/06 11:20:31;;;;;;;0.88;0.70;;;4.10;99.90;;;;;;5012426;28;19917;-45
2021/01/06 11:23:25;;;;;;;1.55;0.55;;;4.00;99.90;;;;;;5034046;28;20552;-41
2021/01/06 11:26:18;;;;;;;0.73;0.73;;;4.10;99.90;;;;;;5037607;28;20470;-43
2021/01/06 11:29:04;;;;;;;0.60;0.50;;;4.10;99.90;;;;;;5038538;28;20076;-42
2021/01/06 11:31:31;;;;;;;;;;;4.10;99.90;;;;;;5040469;28;20072;-42
2021/01/06 11:34:21;;;;;;;2.05;0.95;;;4.00;99.90;;;;;;5034398;28;19923;-41
2021/01/06 11:36:56;;;;;;;1.40;0.70;;;4.00;99.90;;;;;;5036813;28;20112;-42
2021/01/06 11:39:27;;;;;;;1.60;0.80;;;4.00;99.90;;;;;;5039199;28;20025;-42
2021/01/06 11:42:03;;;;;;;1.30;0.70;;;4.00;99.90;;;;;;5037188;28;20029;-41
2021/01/06 11:44:48;;;;;;;1.42;0.95;;;4.00;99.90;;;;;;5036168;28;20021;-44
2021/01/06 11:47:34;;;;;;;0.93;0.73;;;4.00;99.90;;;;;;5035500;28;20071;-42
2021/01/06 11:50:06;;;;;;;0.68;0.60;;;4.00;99.90;;;;;;5037674;28;20626;-42
2021/01/06 11:52:39;;;;;;;1.42;0.90;;;4.00;99.90;;;;;;4997414;28;20462;-44
2021/01/06 11:55:13;;;;;;;0.60;0.50;;;4.00;99.90;;;;;;5001225;28;20030;-43
2021/01/06 11:57:58;;;;;;;1.55;0.75;;;4.00;99.90;;;;;;4994044;28;20180;-42
2021/01/06 12:01:01;;;;;;;0.73;0.63;;;4.00;99.90;;;;;;4995292;28;20029;-42
2021/01/06 12:03:51;;;;;;;2.05;0.57;;;4.00;99.90;;;;;;4991267;28;20039;-40
2021/01/06 12:06:34;;;;;;;1.40;0.80;;;4.00;99.90;;;;;;5005889;28;20034;-42
2021/01/06 12:09:52;;;;;;;0.90;0.60;;;4.00;99.90;;;;;;5000794;28;20026;-42
2021/01/06 12:12:40;;;;;;;0.70;0.60;;;4.00;99.90;;;;;;4972515;28;20031;-44
2021/01/06 12:15:38;;;;;;;0.60;0.60;;;4.00;99.90;;;;;;4996670;28;20041;-45
2021/01/06 12:18:19;;;;;;;0.73;0.73;;;4.00;99.90;;;;;;4995100;28;20052;-46
2021/01/06 12:20:46;;;;;;;1.00;0.60;;;4.00;99.90;;;;;;4999698;28;20474;-44
2021/01/06 12:23:15;;;;;;;0.40;0.40;;;4.00;99.90;;;;;;4998295;28;20026;-41
2021/01/06 12:25:53;;;;;;;1.55;0.60;;;4.00;99.90;;;;;;4994784;28;20033;-44
2021/01/06 12:28:28;;;;;;;0.60;0.60;;;4.00;99.90;;;;;;5005126;28;20022;-43
2021/01/06 12:31:16;;;;;;;0.93;0.60;;;4.00;99.90;;;;;;4984762;28;20077;-46
2021/01/06 12:34:05;;;;;;;0.65;0.60;;;4.00;99.90;;;;;;4991614;28;20037;-41
2021/01/06 12:36:34;;;;;;;0.88;0.50;;;4.00;99.90;;;;;;4995649;28;20034;-45
2021/01/06 12:39:27;;;;;;;0.40;0.40;;;4.00;99.90;;;;;;4999931;28;20109;-43
2021/01/06 12:42:02;;;;;;;0.30;0.30;;;4.00;99.90;;;;;;5000786;28;20036;-44
2021/01/06 12:44:31;;;;;;;1.00;0.63;;;4.00;99.90;;;;;;5002883;28;20026;-44
2021/01/06 12:47:15;;;;;;;0.95;0.60;;;4.00;99.90;;;;;;4997768;28;20026;-43
2021/01/06 12:49:58;;;;;;;0.82;0.70;;;3.90;99.90;;;;;;5001346;28;20030;-45
2021/01/06 12:52:30;;;;;;;0.95;0.60;;;3.90;99.90;;;;;;5032101;28;20449;-44
2021/01/06 12:55:16;;;;;;;0.55;0.55;;;3.90;99.90;;;;;;5035891;28;20021;-47
2021/01/06 12:57:55;;;;;;;0.93;0.77;;;3.90;99.90;;;;;;5035370;28;20060;-42
2021/01/06 13:00:29;;;;;;;1.08;0.80;;;3.90;99.90;;;;;;5035341;28;20033;-41
2021/01/06 13:03:19;;;;;;;1.05;0.68;;;3.80;99.90;;;;;;5038700;28;20029;-45
2021/01/06 13:05:52;;;;;;;0.88;0.73;;;3.90;99.90;;;;;;5035368;28;20029;-43
2021/01/06 13:08:34;;;;;;;0.80;0.80;;;3.80;99.90;;;;;;5033064;28;20028;-45
2021/01/06 13:11:16;;;;;;;0.98;0.73;;;3.80;99.90;;;;;;5034713;28;20486;-42
2021/01/06 13:13:42;;;;;;;2.10;1.90;;;3.80;99.90;;;;;;5031810;28;20048;-44
2021/01/06 13:16:16;;;;;;;1.38;1.25;;;3.70;99.90;;;;;;5032703;28;20044;-46
2021/01/06 13:19:12;;;;;;;1.27;1.15;;;3.70;99.90;;;;;;5032724;28;20033;-42
2021/01/06 13:21:40;;;;;;;1.60;1.27;;;3.70;99.90;;;;;;5009210;28;20064;-47
2021/01/06 13:24:13;;;;;;;1.90;1.13;;;3.70;99.90;;;;;;5033258;28;20044;-45
2021/01/06 13:26:56;;;;;;;2.38;1.35;;;3.70;99.90;;;;;;5031962;28;20053;-45
2021/01/06 13:29:31;;;;;;;2.35;1.25;;;3.70;99.90;;;;;;5040004;28;20028;-44
2021/01/06 13:32:17;;;;;;;1.65;1.08;;;3.70;99.90;;;;;;5035820;28;20030;-43
2021/01/06 13:34:52;;;;;;;3.77;1.50;;;3.70;99.90;;;;;;5039554;28;20038;-42
2021/01/06 13:37:45;;;;;;;2.15;1.50;;;3.60;99.90;;;;;;5040966;28;20064;-41
2021/01/06 13:40:14;;;;;;;1.42;1.10;;;3.60;99.90;;;;;;5030825;28;20112;-42
2021/01/06 13:42:58;;;;;;;3.50;1.70;;;3.70;99.90;;;;;;5031535;28;20018;-44
2021/01/06 13:45:54;;;;;;;3.60;1.60;;;3.70;99.90;;;;;;5032618;28;20117;-42
2021/01/06 13:48:23;;;;;;;2.75;1.42;;;3.60;99.90;;;;;;5030974;28;20433;-42